Time;durP1;ratioP1;P1;durP2;ratioP2;P2;SDS_P1;SDS_P2;PMS_P1;PMS_P2;Temp;Humidity;BMP_temperature;BMP_pressure;BME280_temperature;BME280_humidity;BME280_pressure;Samples;Min_cycle;Max_cycle;Signal;HPM_P1;HPM_P2
2021/08/22 00:01:11;;;;;;;6.55;4.50;;;18.40;99.90;;;;;;5058782;28;20060;-42
2021/08/22 00:03:37;;;;;;;5.95;4.47;;;18.40;99.90;;;;;;5065756;28;20033;-41
2021/08/22 00:06:02;;;;;;;5.68;4.60;;;18.30;99.90;;;;;;5070054;28;20090;-41
2021/08/22 00:08:28;;;;;;;5.88;4.43;;;18.40;99.90;;;;;;5070091;28;20025;-42
2021/08/22 00:10:53;;;;;;;5.72;4.40;;;18.40;99.90;;;;;;5064503;28;20029;-41
2021/08/22 00:13:19;;;;;;;5.97;4.38;;;18.30;99.90;;;;;;5082173;28;20481;-41
2021/08/22 00:15:46;;;;;;;6.00;4.10;;;18.30;99.90;;;;;;5090156;28;20016;-42
2021/08/22 00:18:12;;;;;;;7.70;4.45;;;18.30;99.90;;;;;;5072921;28;20315;-41
2021/08/22 00:20:38;;;;;;;5.53;4.38;;;18.30;99.90;;;;;;5086317;28;20525;-42
2021/08/22 00:23:04;;;;;;;6.78;4.90;;;18.30;99.90;;;;;;5090445;28;20032;-42
2021/08/22 00:25:29;;;;;;;4.85;4.22;;;18.20;99.90;;;;;;5089137;28;20024;-41
2021/08/22 00:27:55;;;;;;;5.88;5.07;;;18.20;99.90;;;;;;5089885;28;20043;-42
2021/08/22 00:30:21;;;;;;;6.43;4.30;;;18.20;99.90;;;;;;5090280;28;20123;-41
2021/08/22 00:32:46;;;;;;;6.15;5.00;;;18.20;99.90;;;;;;5089848;28;20460;-41
2021/08/22 00:35:12;;;;;;;6.97;5.10;;;18.10;99.90;;;;;;5090200;28;20024;-42
2021/08/22 00:37:37;;;;;;;4.95;4.43;;;18.10;99.90;;;;;;5089676;28;20032;-42
2021/08/22 00:40:03;;;;;;;6.68;4.88;;;18.10;99.90;;;;;;5089972;28;20020;-42
2021/08/22 00:42:33;;;;;;;5.88;4.88;;;18.00;99.90;;;;;;5090424;28;20365;-42
2021/08/22 00:45:03;;;;;;;6.60;5.10;;;18.00;99.90;;;;;;5090124;28;20040;-42
2021/08/22 00:47:29;;;;;;;6.00;4.60;;;18.00;99.90;;;;;;5076721;28;20111;-41
2021/08/22 00:49:55;;;;;;;5.97;5.18;;;17.90;99.90;;;;;;5081527;28;20120;-43
2021/08/22 00:52:20;;;;;;;6.50;4.95;;;17.90;99.90;;;;;;5089806;28;20036;-42
2021/08/22 00:54:46;;;;;;;6.40;4.82;;;17.90;99.90;;;;;;5090038;28;20396;-42
2021/08/22 00:57:14;;;;;;;4.93;4.30;;;17.80;99.90;;;;;;5089073;28;20089;-41
2021/08/22 00:59:40;;;;;;;5.55;5.05;;;17.80;99.90;;;;;;5087724;28;20188;-42
2021/08/22 01:02:10;;;;;;;6.90;5.15;;;17.80;99.90;;;;;;5089315;28;20020;-41
2021/08/22 01:04:50;;;;;;;6.43;4.85;;;17.70;99.90;;;;;;5089446;28;20032;-42
2021/08/22 01:07:23;;;;;;;6.13;5.28;;;17.70;99.90;;;;;;5088761;28;20032;-42
2021/08/22 01:09:50;;;;;;;6.05;4.72;;;17.70;99.90;;;;;;5089273;28;20615;-41
2021/08/22 01:12:47;;;;;;;5.53;4.70;;;17.70;99.90;;;;;;5064452;28;20070;-42
2021/08/22 01:15:14;;;;;;;5.88;4.63;;;17.70;99.90;;;;;;5051996;28;20036;-42
2021/08/22 01:17:44;;;;;;;5.72;4.93;;;17.60;99.90;;;;;;5058614;28;20070;-41
2021/08/22 01:20:23;;;;;;;7.03;4.60;;;17.60;99.90;;;;;;5060063;28;20115;-42
2021/08/22 01:22:50;;;;;;;6.10;4.18;;;17.60;99.90;;;;;;5066075;28;20029;-41
2021/08/22 01:25:16;;;;;;;6.15;4.60;;;17.60;99.90;;;;;;5059602;28;20123;-41
2021/08/22 01:27:43;;;;;;;5.05;4.55;;;17.60;99.90;;;;;;5058145;28;20120;-41
2021/08/22 01:30:15;;;;;;;5.07;4.38;;;17.50;99.90;;;;;;5058757;28;20036;-41
2021/08/22 01:32:41;;;;;;;5.22;4.72;;;17.50;99.90;;;;;;5058705;28;20043;-42
2021/08/22 01:35:09;;;;;;;5.88;4.57;;;17.60;99.90;;;;;;5063796;28;20029;-42
2021/08/22 01:37:37;;;;;;;6.22;4.00;;;17.50;99.90;;;;;;5066483;28;20060;-42
2021/08/22 01:40:05;;;;;;;5.40;4.80;;;17.50;99.90;;;;;;5068683;28;20024;-42
2021/08/22 01:42:33;;;;;;;5.68;4.90;;;17.40;99.90;;;;;;5068619;28;20020;-42
2021/08/22 01:44:59;;;;;;;6.45;4.93;;;17.40;99.90;;;;;;5068606;28;20029;-42
2021/08/22 01:47:25;;;;;;;5.90;4.70;;;17.30;99.90;;;;;;5067790;28;20410;-42
2021/08/22 01:49:52;;;;;;;5.88;5.20;;;17.30;99.90;;;;;;5068613;28;20025;-41
2021/08/22 01:52:18;;;;;;;5.28;4.78;;;17.20;99.90;;;;;;5074023;28;20496;-43
2021/08/22 01:54:44;;;;;;;6.05;5.45;;;17.20;99.90;;;;;;5085311;28;20105;-42
2021/08/22 01:57:09;;;;;;;5.45;4.88;;;17.10;99.90;;;;;;5087946;28;20032;-42
2021/08/22 01:59:38;;;;;;;6.00;4.82;;;17.10;99.90;;;;;;5088714;28;20023;-41
2021/08/22 02:02:05;;;;;;;6.82;4.85;;;17.10;99.90;;;;;;5088534;28;20051;-43
2021/08/22 02:04:40;;;;;;;6.03;5.22;;;17.00;99.90;;;;;;5088567;28;20039;-41
2021/08/22 02:07:15;;;;;;;6.47;4.65;;;17.00;99.90;;;;;;5087911;28;20109;-41
2021/08/22 02:09:56;;;;;;;5.45;4.82;;;16.90;99.90;;;;;;5088664;28;20031;-42
2021/08/22 02:12:22;;;;;;;6.93;4.85;;;16.90;99.90;;;;;;5088371;28;20029;-42
2021/08/22 02:15:31;;;;;;;6.28;5.10;;;16.90;99.90;;;;;;5088526;28;20032;-42
2021/08/22 02:18:12;;;;;;;6.85;5.38;;;16.80;99.90;;;;;;5088032;28;20099;-42
2021/08/22 02:20:38;;;;;;;;;;;16.80;99.90;;;;;;5084718;28;20016;-43
2021/08/22 02:23:05;;;;;;;8.73;5.55;;;16.70;99.90;;;;;;5079037;28;20353;-42
2021/08/22 02:25:31;;;;;;;5.95;4.95;;;16.70;99.90;;;;;;5088624;28;20081;-42
2021/08/22 02:27:58;;;;;;;5.55;4.95;;;16.70;99.90;;;;;;5087817;28;20119;-42
2021/08/22 02:30:24;;;;;;;5.28;4.78;;;16.60;99.90;;;;;;5088426;28;20572;-42
2021/08/22 02:32:51;;;;;;;6.60;5.57;;;16.60;99.90;;;;;;5088130;28;20059;-42
2021/08/22 02:35:16;;;;;;;5.93;4.85;;;16.60;99.90;;;;;;5088321;28;20039;-42
2021/08/22 02:37:42;;;;;;;6.38;4.60;;;16.50;99.90;;;;;;5087484;28;20024;-42
2021/08/22 02:40:08;;;;;;;5.53;4.82;;;16.50;99.90;;;;;;5092051;28;20123;-42
2021/08/22 02:42:33;;;;;;;7.55;5.53;;;16.50;99.90;;;;;;5092375;28;20047;-43
2021/08/22 02:44:59;;;;;;;6.28;5.25;;;16.40;99.90;;;;;;5092123;28;20485;-42
2021/08/22 02:47:24;;;;;;;5.85;5.25;;;16.40;99.90;;;;;;5091482;28;20032;-42
2021/08/22 02:49:50;;;;;;;5.20;4.70;;;16.30;99.90;;;;;;5092525;28;20035;-47
2021/08/22 02:52:16;;;;;;;5.72;5.13;;;16.30;99.90;;;;;;5082524;28;20355;-43
2021/08/22 02:54:41;;;;;;;5.93;5.10;;;16.30;99.90;;;;;;5088489;28;20021;-42
2021/08/22 02:57:06;;;;;;;6.53;5.07;;;16.30;99.90;;;;;;5091393;28;20152;-43
2021/08/22 02:59:32;;;;;;;5.45;4.95;;;16.30;99.90;;;;;;5092250;28;20031;-43
2021/08/22 03:01:58;;;;;;;6.28;5.10;;;16.20;99.90;;;;;;5090887;28;20028;-43
2021/08/22 03:04:23;;;;;;;6.28;4.88;;;16.20;99.90;;;;;;5092050;28;20106;-43
2021/08/22 03:06:49;;;;;;;5.57;5.03;;;16.10;99.90;;;;;;5089631;28;20071;-43
2021/08/22 03:09:14;;;;;;;5.90;4.97;;;16.10;99.90;;;;;;5091799;28;20023;-43
2021/08/22 03:11:40;;;;;;;7.90;5.32;;;16.10;99.90;;;;;;5091885;28;20032;-43
2021/08/22 03:14:05;;;;;;;5.95;5.20;;;16.00;99.90;;;;;;5091570;28;20047;-41
2021/08/22 03:16:31;;;;;;;5.72;5.13;;;16.00;99.90;;;;;;5091283;28;20074;-41
2021/08/22 03:18:57;;;;;;;5.88;5.05;;;16.00;99.90;;;;;;5091594;28;20024;-41
2021/08/22 03:21:23;;;;;;;6.65;5.15;;;15.90;99.90;;;;;;5086201;28;20363;-42
2021/08/22 03:23:48;;;;;;;7.28;5.45;;;15.90;99.90;;;;;;5082941;28;20050;-42
2021/08/22 03:26:14;;;;;;;5.97;5.38;;;16.00;99.90;;;;;;5090735;28;20035;-42
2021/08/22 03:28:39;;;;;;;7.00;5.72;;;16.00;99.90;;;;;;5091546;28;20031;-44
2021/08/22 03:31:05;;;;;;;5.88;5.25;;;15.90;99.90;;;;;;5091519;28;20046;-42
2021/08/22 03:33:30;;;;;;;6.38;5.18;;;16.00;99.90;;;;;;5091233;28;20067;-43
2021/08/22 03:35:56;;;;;;;7.32;5.55;;;15.90;99.90;;;;;;5091382;28;20092;-42
2021/08/22 03:38:21;;;;;;;8.85;5.97;;;16.00;99.90;;;;;;5090922;28;20092;-41
2021/08/22 03:40:47;;;;;;;7.60;5.65;;;16.00;99.90;;;;;;5091515;28;20016;-43
2021/08/22 03:43:13;;;;;;;7.93;6.00;;;15.90;99.90;;;;;;5091470;28;20538;-42
2021/08/22 03:45:38;;;;;;;5.97;5.35;;;15.90;99.90;;;;;;5091364;28;20039;-41
2021/08/22 03:48:04;;;;;;;9.27;5.53;;;15.90;99.90;;;;;;5090554;28;20036;-42
2021/08/22 03:50:30;;;;;;;6.60;5.45;;;15.80;99.90;;;;;;5090254;28;20125;-41
2021/08/22 03:52:56;;;;;;;6.53;5.30;;;15.80;99.90;;;;;;5079041;28;20028;-41
2021/08/22 03:55:21;;;;;;;5.78;4.97;;;15.80;99.90;;;;;;5090988;28;20027;-42
2021/08/22 03:57:47;;;;;;;7.07;5.90;;;15.80;99.90;;;;;;5090211;28;20078;-42
2021/08/22 04:00:14;;;;;;;6.88;5.35;;;15.80;99.90;;;;;;5090839;28;20035;-41
2021/08/22 04:02:39;;;;;;;6.43;5.80;;;15.80;99.90;;;;;;5090827;28;20028;-42
2021/08/22 04:05:08;;;;;;;7.53;5.28;;;15.80;99.90;;;;;;5090740;28;20016;-41
2021/08/22 04:07:34;;;;;;;7.13;5.68;;;15.80;99.90;;;;;;5090099;28;20024;-42
2021/08/22 04:10:00;;;;;;;6.90;6.20;;;15.70;99.90;;;;;;5090675;28;20028;-42
2021/08/22 04:12:28;;;;;;;6.72;5.55;;;15.80;99.90;;;;;;5090433;28;20028;-43
2021/08/22 04:14:53;;;;;;;6.35;5.28;;;15.80;99.90;;;;;;5090689;28;20036;-42
2021/08/22 04:17:18;;;;;;;6.95;5.80;;;15.70;99.90;;;;;;5088855;28;20028;-42
2021/08/22 04:19:44;;;;;;;7.13;5.90;;;15.80;99.90;;;;;;5090730;28;20466;-42
2021/08/22 04:22:11;;;;;;;6.70;5.38;;;15.70;99.90;;;;;;5074821;28;20096;-42
2021/08/22 04:24:37;;;;;;;8.57;6.35;;;15.70;99.90;;;;;;5062668;28;20024;-43
2021/08/22 04:27:04;;;;;;;7.03;5.38;;;15.70;99.90;;;;;;5058795;28;20087;-42
2021/08/22 04:29:30;;;;;;;8.70;6.07;;;15.70;99.90;;;;;;5059461;28;20498;-41
2021/08/22 04:31:56;;;;;;;8.02;5.63;;;15.70;99.90;;;;;;5060588;28;20041;-43
2021/08/22 04:34:21;;;;;;;5.93;5.32;;;15.70;99.90;;;;;;5058820;28;20406;-42
2021/08/22 04:36:47;;;;;;;8.63;6.90;;;15.70;99.90;;;;;;5062596;28;20020;-42
2021/08/22 04:39:13;;;;;;;6.03;5.43;;;15.70;99.90;;;;;;5057742;28;20490;-42
2021/08/22 04:41:43;;;;;;;6.55;5.80;;;15.70;99.90;;;;;;5065602;28;20021;-42
2021/08/22 04:44:09;;;;;;;7.00;5.20;;;15.70;99.90;;;;;;5065083;28;20044;-43
2021/08/22 04:46:34;;;;;;;6.70;5.50;;;15.80;99.90;;;;;;5059487;28;20122;-42
2021/08/22 04:49:00;;;;;;;6.65;5.90;;;15.80;99.90;;;;;;5063895;28;20398;-41
2021/08/22 04:51:25;;;;;;;7.07;5.53;;;15.80;99.90;;;;;;5074286;28;20036;-42
2021/08/22 04:53:51;;;;;;;8.40;6.22;;;15.80;99.90;;;;;;5067867;28;20463;-42
2021/08/22 04:56:16;;;;;;;6.57;5.50;;;15.80;99.90;;;;;;5057849;28;20024;-42
2021/08/22 04:58:42;;;;;;;7.07;6.10;;;15.80;99.90;;;;;;5058982;28;20021;-41
2021/08/22 05:01:07;;;;;;;8.38;5.72;;;15.90;99.90;;;;;;5056570;28;20036;-42
2021/08/22 05:03:33;;;;;;;6.45;5.70;;;15.90;99.90;;;;;;5062884;28;20067;-41
2021/08/22 05:05:58;;;;;;;8.68;5.93;;;16.00;99.90;;;;;;5063397;28;20029;-41
2021/08/22 05:08:24;;;;;;;8.05;5.63;;;16.10;99.90;;;;;;5061413;28;20463;-42
2021/08/22 05:10:50;;;;;;;7.80;5.50;;;16.10;99.90;;;;;;5061125;28;20060;-42
2021/08/22 05:13:16;;;;;;;6.55;5.10;;;16.20;99.90;;;;;;5059424;28;20031;-42
2021/08/22 05:15:41;;;;;;;6.82;4.90;;;16.20;99.90;;;;;;5060224;28;20021;-41
2021/08/22 05:18:07;;;;;;;5.25;4.75;;;16.20;99.90;;;;;;5056684;28;20383;-41
2021/08/22 05:20:33;;;;;;;5.68;4.90;;;16.30;99.90;;;;;;5059377;28;20029;-42
2021/08/22 05:22:58;;;;;;;5.45;4.95;;;16.30;99.90;;;;;;5059398;28;20436;-42
2021/08/22 05:25:24;;;;;;;7.30;5.72;;;16.40;99.90;;;;;;5060840;28;20031;-42
2021/08/22 05:27:49;;;;;;;6.07;5.25;;;16.40;99.90;;;;;;5056738;28;20027;-42
2021/08/22 05:30:15;;;;;;;13.45;5.85;;;16.40;99.90;;;;;;5061081;28;20242;-42
2021/08/22 05:32:40;;;;;;;7.20;5.78;;;16.50;99.90;;;;;;5058623;28;20031;-43
2021/08/22 05:35:06;;;;;;;6.28;4.75;;;16.50;99.90;;;;;;5059707;28;20027;-41
2021/08/22 05:37:31;;;;;;;6.45;5.68;;;16.50;99.90;;;;;;5055585;28;20520;-42
2021/08/22 05:39:57;;;;;;;6.93;5.47;;;16.50;99.90;;;;;;5059168;28;20024;-42
2021/08/22 05:42:22;;;;;;;8.77;7.45;;;16.50;99.90;;;;;;5067231;28;20111;-42
2021/08/22 05:44:48;;;;;;;9.43;7.65;;;16.50;99.90;;;;;;5069034;28;20048;-41
2021/08/22 05:47:20;;;;;;;7.75;6.55;;;16.50;99.90;;;;;;5066721;28;20066;-41
2021/08/22 05:49:47;;;;;;;9.75;7.20;;;16.60;99.90;;;;;;5069008;28;20029;-42
2021/08/22 05:52:13;;;;;;;12.10;7.72;;;16.60;99.90;;;;;;5068619;28;20028;-42
2021/08/22 05:54:38;;;;;;;12.25;7.75;;;16.60;99.90;;;;;;5068701;28;20035;-43
2021/08/22 05:57:04;;;;;;;10.23;7.68;;;16.60;99.90;;;;;;5064212;28;20070;-42
2021/08/22 05:59:29;;;;;;;8.93;7.07;;;16.70;99.90;;;;;;5069531;28;20381;-41
2021/08/22 06:01:55;;;;;;;9.48;8.45;;;16.60;99.90;;;;;;5088738;28;20028;-41
2021/08/22 06:04:20;;;;;;;10.48;8.23;;;16.60;99.90;;;;;;5088793;28;20111;-42
2021/08/22 06:06:46;;;;;;;9.15;8.15;;;16.70;99.90;;;;;;5088094;28;20410;-42
2021/08/22 06:09:11;;;;;;;8.13;7.32;;;16.70;99.90;;;;;;5088541;28;20017;-41
2021/08/22 06:11:37;;;;;;;8.07;7.28;;;16.70;99.90;;;;;;5088663;28;20024;-41
2021/08/22 06:14:03;;;;;;;10.25;9.15;;;16.70;99.90;;;;;;5075771;28;20490;-41
2021/08/22 06:16:28;;;;;;;10.45;9.30;;;16.70;99.90;;;;;;5074256;28;20125;-41
2021/08/22 06:18:54;;;;;;;11.55;8.30;;;16.70;99.90;;;;;;5058990;28;20036;-42
2021/08/22 06:21:19;;;;;;;11.25;8.23;;;16.60;99.90;;;;;;5064055;28;20017;-40
2021/08/22 06:23:46;;;;;;;9.43;8.50;;;16.60;99.90;;;;;;5060564;28;20025;-42
2021/08/22 06:26:11;;;;;;;10.18;9.07;;;16.60;99.90;;;;;;5055032;28;20471;-41
2021/08/22 06:28:37;;;;;;;9.68;8.68;;;16.60;99.90;;;;;;5047871;28;20055;-41
2021/08/22 06:31:02;;;;;;;10.30;9.25;;;16.50;99.90;;;;;;5048532;28;20463;-42
2021/08/22 06:33:28;;;;;;;10.85;9.75;;;16.50;99.90;;;;;;5056401;28;20031;-41
2021/08/22 06:35:59;;;;;;;11.40;10.20;;;16.50;99.90;;;;;;5057080;28;20116;-42
2021/08/22 06:38:25;;;;;;;12.63;10.13;;;16.40;99.90;;;;;;5055212;28;20013;-42
2021/08/22 06:40:50;;;;;;;15.02;10.52;;;16.40;99.90;;;;;;5057743;28;20505;-42
2021/08/22 06:43:15;;;;;;;12.45;10.75;;;16.40;99.90;;;;;;5050374;28;20317;-42
2021/08/22 06:45:41;;;;;;;12.20;10.02;;;16.50;99.90;;;;;;5048213;28;20048;-42
2021/08/22 06:48:07;;;;;;;14.07;10.57;;;16.50;99.90;;;;;;5047037;28;20063;-41
2021/08/22 06:50:33;;;;;;;12.40;10.85;;;16.50;99.90;;;;;;5047965;28;20474;-42
2021/08/22 06:52:59;;;;;;;14.45;10.48;;;16.50;99.90;;;;;;5061012;28;20049;-41
2021/08/22 06:55:24;;;;;;;13.55;11.13;;;16.50;99.90;;;;;;5079618;28;20016;-42
2021/08/22 06:57:50;;;;;;;14.05;10.23;;;16.50;99.90;;;;;;5087472;28;20111;-41
2021/08/22 07:00:17;;;;;;;14.93;10.82;;;16.50;99.90;;;;;;5057051;28;20570;-41
2021/08/22 07:02:44;;;;;;;12.55;11.15;;;16.50;99.90;;;;;;5055909;28;20028;-42
2021/08/22 07:05:11;;;;;;;11.73;9.88;;;16.50;99.90;;;;;;5057163;28;20025;-42
2021/08/22 07:07:36;;;;;;;11.82;10.02;;;16.50;99.90;;;;;;5055736;28;20413;-42
2021/08/22 07:10:02;;;;;;;10.00;8.80;;;16.40;99.90;;;;;;5057002;28;20016;-41
2021/08/22 07:12:28;;;;;;;10.88;9.73;;;16.40;99.90;;;;;;5048441;28;20076;-42
2021/08/22 07:14:53;;;;;;;11.60;9.10;;;16.50;99.90;;;;;;5075736;28;20032;-43
2021/08/22 07:17:21;;;;;;;13.70;9.70;;;16.50;99.90;;;;;;5087361;28;20485;-42
2021/08/22 07:19:47;;;;;;;10.52;9.05;;;16.50;99.90;;;;;;5087679;28;20090;-42
2021/08/22 07:22:13;;;;;;;13.75;9.88;;;16.40;99.90;;;;;;5079213;28;20029;-43
2021/08/22 07:24:39;;;;;;;10.95;9.45;;;16.50;99.90;;;;;;5071840;28;20375;-43
2021/08/22 07:27:04;;;;;;;10.73;9.43;;;16.50;99.90;;;;;;5090076;28;20473;-43
2021/08/22 07:29:30;;;;;;;14.65;9.25;;;16.50;99.90;;;;;;5091548;28;20037;-43
2021/08/22 07:31:55;;;;;;;14.70;10.23;;;16.50;99.90;;;;;;5091178;28;20500;-43
2021/08/22 07:34:20;;;;;;;12.10;9.18;;;16.50;99.90;;;;;;5091660;28;20020;-44
2021/08/22 07:36:46;;;;;;;12.02;9.23;;;16.60;99.90;;;;;;5090670;28;20091;-44
2021/08/22 07:39:13;;;;;;;12.57;10.18;;;16.60;99.90;;;;;;5091360;28;20035;-43
2021/08/22 07:41:38;;;;;;;10.90;9.20;;;16.60;99.90;;;;;;5091613;28;20496;-43
2021/08/22 07:44:04;;;;;;;12.07;9.60;;;16.70;99.90;;;;;;5091713;28;20032;-44
2021/08/22 07:46:32;;;;;;;11.75;9.48;;;16.70;99.90;;;;;;5090744;28;20496;-42
2021/08/22 07:48:57;;;;;;;11.48;9.07;;;16.80;99.90;;;;;;5091225;28;20021;-43
2021/08/22 07:51:23;;;;;;;11.32;9.45;;;16.90;99.90;;;;;;5091048;28;20040;-42
2021/08/22 07:53:48;;;;;;;11.20;10.10;;;16.90;99.90;;;;;;5074540;28;20081;-43
2021/08/22 07:56:14;;;;;;;11.43;10.18;;;16.90;99.90;;;;;;5082796;28;20032;-43
2021/08/22 07:58:39;;;;;;;11.27;9.48;;;17.00;99.90;;;;;;5090767;28;20031;-43
2021/08/22 08:01:05;;;;;;;12.02;10.20;;;17.00;99.90;;;;;;5079504;28;20111;-43
2021/08/22 08:03:30;;;;;;;10.57;9.48;;;17.10;99.90;;;;;;5070532;28;20037;-43
2021/08/22 08:05:56;;;;;;;14.52;10.80;;;17.10;99.90;;;;;;5066057;28;20036;-42
2021/08/22 08:08:22;;;;;;;11.25;10.05;;;17.10;99.90;;;;;;5056620;28;20131;-43
2021/08/22 08:10:48;;;;;;;13.10;9.90;;;17.10;99.90;;;;;;5058024;28;20103;-43
2021/08/22 08:13:14;;;;;;;11.55;10.35;;;17.00;99.90;;;;;;5059236;28;20032;-43
2021/08/22 08:15:39;;;;;;;11.90;10.70;;;17.00;99.90;;;;;;5058080;28;20052;-42
2021/08/22 08:18:05;;;;;;;10.27;9.27;;;17.00;99.90;;;;;;5053310;28;20020;-43
2021/08/22 08:20:30;;;;;;;11.73;9.88;;;17.00;99.90;;;;;;5064425;28;20032;-43
2021/08/22 08:22:56;;;;;;;12.05;10.02;;;17.00;99.90;;;;;;5059393;28;20021;-42
2021/08/22 08:25:21;;;;;;;11.93;10.52;;;17.00;99.90;;;;;;5058346;28;20079;-41
2021/08/22 08:27:48;;;;;;;11.23;10.00;;;17.00;99.90;;;;;;5058891;28;20037;-42
2021/08/22 08:30:13;;;;;;;12.55;10.32;;;16.90;99.90;;;;;;5076230;28;20025;-42
2021/08/22 08:32:39;;;;;;;11.63;10.43;;;16.90;99.90;;;;;;5066812;28;20552;-41
2021/08/22 08:35:11;;;;;;;10.05;9.05;;;16.90;99.90;;;;;;5066808;28;20402;-42
2021/08/22 08:37:37;;;;;;;11.50;10.30;;;16.90;99.90;;;;;;5067403;28;20477;-42
2021/08/22 08:40:04;;;;;;;11.57;10.35;;;16.90;99.90;;;;;;5067855;28;20039;-42
2021/08/22 08:42:32;;;;;;;13.10;10.95;;;16.90;99.90;;;;;;5068187;28;20029;-42
2021/08/22 08:44:58;;;;;;;13.50;10.95;;;16.90;99.90;;;;;;5068751;28;20029;-42
2021/08/22 08:47:25;;;;;;;14.55;12.52;;;16.90;99.90;;;;;;5064572;28;20109;-43
2021/08/22 08:50:14;;;;;;;13.10;11.70;;;16.90;99.90;;;;;;5074948;28;20432;-42
2021/08/22 08:52:54;;;;;;;13.07;11.70;;;16.90;99.90;;;;;;5072254;28;20386;-42
2021/08/22 08:55:29;;;;;;;15.68;12.80;;;16.90;99.90;;;;;;5048227;28;20112;-43
2021/08/22 08:57:57;;;;;;;14.40;12.32;;;16.80;99.90;;;;;;5045844;28;20024;-42
2021/08/22 09:00:33;;;;;;;21.40;13.73;;;16.70;99.90;;;;;;5045934;28;20235;-42
2021/08/22 09:03:00;;;;;;;16.77;14.88;;;16.70;99.90;;;;;;5047231;28;20036;-42
2021/08/22 09:05:27;;;;;;;18.15;16.25;;;16.60;99.90;;;;;;5047435;28;20028;-42
2021/08/22 09:08:24;;;;;;;16.88;14.68;;;16.60;99.90;;;;;;5045667;28;20503;-44
2021/08/22 09:11:23;;;;;;;20.15;15.10;;;16.60;99.90;;;;;;5046876;28;20136;-43
2021/08/22 09:14:26;;;;;;;16.98;15.20;;;16.60;99.90;;;;;;5046094;28;20032;-43
2021/08/22 09:17:33;;;;;;;18.58;16.65;;;16.50;99.90;;;;;;5046748;28;20532;-43
2021/08/22 09:20:49;;;;;;;19.42;16.60;;;16.50;99.90;;;;;;5046831;28;20036;-43
2021/08/22 09:23:48;;;;;;;19.42;17.08;;;16.50;99.90;;;;;;5056013;28;20103;-43
2021/08/22 09:26:32;;;;;;;20.38;18.23;;;16.40;99.90;;;;;;5047105;28;20436;-43
2021/08/22 09:29:28;;;;;;;20.92;18.20;;;16.50;99.90;;;;;;5046952;28;20075;-43
2021/08/22 09:32:32;;;;;;;21.20;19.08;;;16.50;99.90;;;;;;5054542;28;20086;-43
2021/08/22 09:35:35;;;;;;;20.10;18.00;;;16.50;99.90;;;;;;5062944;28;20036;-43
2021/08/22 09:38:19;;;;;;;20.25;17.85;;;16.50;99.90;;;;;;5065749;28;20021;-42
2021/08/22 09:41:22;;;;;;;20.17;18.05;;;16.60;99.90;;;;;;5065474;28;20028;-43
2021/08/22 09:44:15;;;;;;;20.25;17.63;;;16.60;99.90;;;;;;5065568;28;20025;-43
2021/08/22 09:47:12;;;;;;;21.00;18.75;;;16.70;99.90;;;;;;5065234;28;20501;-43
2021/08/22 09:49:56;;;;;;;22.90;20.50;;;16.70;99.90;;;;;;5064486;28;20024;-43
2021/08/22 09:53:09;;;;;;;22.40;20.13;;;16.70;99.90;;;;;;5062415;28;20032;-43
2021/08/22 09:56:12;;;;;;;20.73;18.52;;;16.70;99.90;;;;;;5069680;28;20059;-44
2021/08/22 09:59:15;;;;;;;21.88;19.65;;;16.80;99.90;;;;;;5066099;28;20024;-44
2021/08/22 10:01:46;;;;;;;19.92;17.88;;;16.90;99.90;;;;;;5065397;28;20024;-42
2021/08/22 10:04:50;;;;;;;21.80;18.95;;;16.90;99.90;;;;;;5064108;28;20205;-43
2021/08/22 10:07:36;;;;;;;19.13;17.13;;;17.00;99.90;;;;;;5067086;28;20099;-43
2021/08/22 10:10:02;;;;;;;20.85;18.70;;;17.10;99.90;;;;;;5067244;28;20037;-43
2021/08/22 10:12:27;;;;;;;20.38;18.25;;;17.30;99.90;;;;;;5059180;28;20033;-43
2021/08/22 10:14:54;;;;;;;18.38;16.35;;;17.40;99.90;;;;;;5066827;28;20043;-44
2021/08/22 10:17:24;;;;;;;16.85;15.07;;;17.60;99.90;;;;;;5084861;28;20024;-43
2021/08/22 10:19:50;;;;;;;16.65;15.05;;;17.70;99.90;;;;;;5086510;28;20107;-43
2021/08/22 10:22:18;;;;;;;15.63;14.07;;;17.90;99.90;;;;;;5067843;28;20025;-43
2021/08/22 10:24:46;;;;;;;16.08;14.38;;;17.90;99.90;;;;;;5047403;28;20056;-44
2021/08/22 10:27:30;;;;;;;15.30;13.68;;;17.90;99.90;;;;;;5065711;28;20052;-44
2021/08/22 10:29:57;;;;;;;15.65;13.70;;;17.90;99.90;;;;;;5066770;28;20027;-43
2021/08/22 10:32:26;;;;;;;15.40;13.80;;;17.90;99.90;;;;;;5065940;28;20287;-43
2021/08/22 10:35:18;;;;;;;19.42;16.35;;;18.00;99.90;;;;;;5066517;28;20020;-44
2021/08/22 10:37:45;;;;;;;17.48;15.68;;;17.80;99.90;;;;;;5063301;28;20556;-43
2021/08/22 10:40:26;;;;;;;19.05;16.23;;;17.90;99.90;;;;;;5065082;28;20028;-43
2021/08/22 10:43:00;;;;;;;18.45;15.27;;;18.00;99.90;;;;;;5065951;28;20036;-43
2021/08/22 10:45:52;;;;;;;18.80;16.85;;;18.10;99.90;;;;;;5066285;28;20481;-43
2021/08/22 10:48:23;;;;;;;18.30;15.00;;;18.10;99.90;;;;;;5063310;28;20040;-43
2021/08/22 10:51:07;;;;;;;21.52;17.73;;;18.30;99.90;;;;;;5066550;28;20059;-44
2021/08/22 10:53:43;;;;;;;16.02;14.43;;;18.50;99.90;;;;;;5067317;28;20036;-43
2021/08/22 10:56:21;;;;;;;20.65;16.67;;;18.60;99.90;;;;;;5069398;28;20016;-44
2021/08/22 10:58:56;;;;;;;18.75;14.65;;;18.80;99.90;;;;;;5086922;28;20505;-46
2021/08/22 11:01:22;;;;;;;14.90;12.95;;;18.90;99.90;;;;;;5089579;28;20051;-44
2021/08/22 11:04:22;;;;;;;14.48;12.60;;;19.00;99.90;;;;;;5090794;28;20028;-45
2021/08/22 11:07:07;;;;;;;13.38;11.40;;;19.10;99.90;;;;;;5066655;28;20059;-43
2021/08/22 11:09:37;;;;;;;12.63;11.48;;;19.30;99.90;;;;;;5089792;28;20349;-43
2021/08/22 11:12:20;;;;;;;;;;;19.50;99.90;;;;;;5090348;28;20028;-43
2021/08/22 11:14:45;;;;;;;10.82;9.75;;;19.50;99.90;;;;;;5089651;28;20229;-43
2021/08/22 11:17:13;;;;;;;10.43;9.35;;;19.60;99.90;;;;;;5089328;28;20036;-44
2021/08/22 11:19:38;;;;;;;10.80;9.70;;;19.70;99.90;;;;;;5089847;28;20059;-43
2021/08/22 11:22:20;;;;;;;11.18;9.70;;;19.50;99.90;;;;;;5089653;28;20159;-43
2021/08/22 11:24:53;;;;;;;10.40;9.40;;;19.60;99.90;;;;;;5054139;28;20056;-43
2021/08/22 11:27:26;;;;;;;9.75;8.20;;;19.60;99.90;;;;;;5077755;28;20063;-43
2021/08/22 11:30:08;;;;;;;11.45;9.68;;;19.60;99.90;;;;;;5049464;28;20021;-43
2021/08/22 11:32:34;;;;;;;10.57;8.55;;;19.70;99.90;;;;;;5050050;28;20028;-43
2021/08/22 11:35:14;;;;;;;9.43;8.52;;;19.60;99.90;;;;;;5058361;28;20033;-42
2021/08/22 11:37:41;;;;;;;9.53;8.27;;;19.50;99.90;;;;;;5058104;28;20500;-42
2021/08/22 11:40:09;;;;;;;9.75;8.75;;;19.40;99.90;;;;;;5058244;28;20032;-42
2021/08/22 11:42:36;;;;;;;8.68;7.88;;;19.20;99.90;;;;;;5058154;28;20112;-42
2021/08/22 11:45:09;;;;;;;9.10;8.20;;;19.20;99.90;;;;;;5062727;28;20028;-43
2021/08/22 11:47:37;;;;;;;9.02;8.13;;;19.40;99.90;;;;;;5063203;28;20028;-44
2021/08/22 11:50:08;;;;;;;9.45;8.38;;;19.50;99.90;;;;;;5069016;28;20055;-43
2021/08/22 11:52:36;;;;;;;9.93;8.63;;;20.00;99.90;;;;;;5065740;28;20074;-44
2021/08/22 11:55:04;;;;;;;9.18;7.30;;;20.80;99.90;;;;;;5079367;28;20021;-44
2021/08/22 11:57:29;;;;;;;6.25;5.65;;;21.80;99.90;;;;;;5089470;28;20426;-43
2021/08/22 12:00:07;;;;;;;5.15;4.75;;;22.30;99.90;;;;;;5086195;28;20055;-43
2021/08/22 12:02:33;;;;;;;6.95;5.75;;;22.80;99.90;;;;;;5054705;28;20029;-43
2021/08/22 12:05:21;;;;;;;6.90;5.95;;;22.90;99.90;;;;;;5065914;28;20035;-44
2021/08/22 12:07:49;;;;;;;5.88;5.35;;;22.90;99.90;;;;;;5049031;28;20503;-43
2021/08/22 12:10:29;;;;;;;5.82;5.10;;;23.20;99.90;;;;;;5048213;28;20530;-43
2021/08/22 12:12:56;;;;;;;4.93;4.53;;;23.30;99.90;;;;;;5048560;28;20029;-45
2021/08/22 12:15:28;;;;;;;5.35;4.85;;;23.40;99.90;;;;;;5062838;28;20079;-45
2021/08/22 12:18:16;;;;;;;5.35;4.85;;;23.70;99.90;;;;;;5066535;28;20493;-43
2021/08/22 12:20:42;;;;;;;5.65;5.07;;;24.10;99.90;;;;;;5067109;28;20021;-43
2021/08/22 12:23:10;;;;;;;7.10;4.93;;;24.50;99.90;;;;;;5068342;28;20033;-45
2021/08/22 12:25:36;;;;;;;5.07;4.57;;;24.80;99.90;;;;;;5080439;28;20432;-44
2021/08/22 12:28:25;;;;;;;5.82;4.40;;;24.60;99.90;;;;;;5084523;28;20129;-45
2021/08/22 12:31:20;;;;;;;4.65;4.15;;;24.10;99.90;;;;;;5057486;28;20029;-44
2021/08/22 12:33:54;;;;;;;6.10;5.05;;;23.90;99.90;;;;;;5038076;28;20033;-45
2021/08/22 12:36:31;;;;;;;4.07;3.67;;;24.10;99.90;;;;;;5057357;28;20028;-42
2021/08/22 12:38:59;;;;;;;4.10;3.70;;;24.50;99.90;;;;;;5057321;28;20375;-43
2021/08/22 12:41:27;;;;;;;4.22;3.83;;;24.60;99.90;;;;;;5052020;28;20593;-46
2021/08/22 12:43:57;;;;;;;4.22;3.83;;;24.70;99.90;;;;;;5059302;28;20562;-43
2021/08/22 12:46:23;;;;;;;4.30;3.90;;;24.40;99.90;;;;;;5057715;28;20090;-43
2021/08/22 12:48:49;;;;;;;4.07;3.45;;;24.80;99.90;;;;;;5056383;28;20098;-44
2021/08/22 12:51:17;;;;;;;4.28;3.72;;;24.90;99.90;;;;;;5059496;28;20506;-43
2021/08/22 12:53:43;;;;;;;5.93;4.65;;;25.00;99.90;;;;;;5066969;28;20028;-42
2021/08/22 12:56:08;;;;;;;5.38;4.88;;;25.00;99.90;;;;;;5073788;28;20032;-44